Time;durP1;ratioP1;P1;durP2;ratioP2;P2;SDS_P1;SDS_P2;PMS_P1;PMS_P2;Temp;Humidity;BMP_temperature;BMP_pressure;BME280_temperature;BME280_humidity;BME280_pressure;Samples;Min_cycle;Max_cycle;Signal;HPM_P1;HPM_P2
2022/11/29 00:01:18;;;;;;;34.15;19.63;;;;;;;1.38;76.98;99214.78;5028211;28;20065;-72
2022/11/29 00:03:45;;;;;;;33.03;18.52;;;;;;;1.99;77.13;99302.38;5027006;28;20034;-72
2022/11/29 00:06:16;;;;;;;32.95;19.35;;;;;;;1.00;77.15;99139.84;5027700;28;20037;-72
2022/11/29 00:08:43;;;;;;;27.58;19.00;;;;;;;1.99;77.19;99305.84;5027823;28;20054;-72
2022/11/29 00:11:12;;;;;;;37.25;20.63;;;;;;;1.96;77.42;99312.88;5027864;28;20050;-72
2022/11/29 00:13:39;;;;;;;31.92;19.77;;;;;;;1.16;77.19;99183.88;5027891;28;20100;-71
2022/11/29 00:16:08;;;;;;;34.80;19.48;;;;;;;1.92;77.33;99298.16;5027672;28;20186;-72
2022/11/29 00:18:36;;;;;;;36.83;21.77;;;;;;;1.91;77.41;99299.91;5027525;28;20034;-72
2022/11/29 00:21:05;;;;;;;35.60;19.00;;;;;;;1.88;77.63;99297.38;5027394;28;20041;-73
2022/11/29 00:23:34;;;;;;;36.22;20.42;;;;;;;1.89;77.58;99297.31;5027457;28;20050;-73
2022/11/29 00:26:04;;;;;;;35.05;20.10;;;;;;;1.51;77.58;99224.94;5026935;28;20290;-73
2022/11/29 00:28:30;;;;;;;32.65;19.58;;;;;;;1.93;77.60;99302.50;5027567;28;20056;-73
2022/11/29 00:30:57;;;;;;;29.85;18.23;;;;;;;1.94;77.51;99306.81;5027878;28;20056;-71
2022/11/29 00:33:24;;;;;;;38.33;20.65;;;;;;;1.92;77.61;99301.63;5026453;28;20042;-72
2022/11/29 00:35:50;;;;;;;36.03;20.85;;;;;;;1.90;77.61;99298.19;5027441;28;20298;-72
2022/11/29 00:38:17;;;;;;;32.58;18.90;;;;;;;1.90;77.65;99306.03;5027443;28;20293;-71
2022/11/29 00:40:51;;;;;;;39.83;19.70;;;;;;;1.88;77.85;99297.38;5027387;28;20100;-71
2022/11/29 00:43:18;;;;;;;56.67;30.00;;;;;;;1.80;78.34;99280.97;5027643;28;20053;-70
2022/11/29 00:45:45;;;;;;;47.53;24.48;;;;;;;2.03;79.11;99297.03;5027536;28;20088;-70
2022/11/29 00:48:11;;;;;;;40.45;23.70;;;;;;;2.13;78.62;99300.31;5026091;28;20281;-70
2022/11/29 00:50:38;;;;;;;39.17;22.80;;;;;;;2.17;77.91;99300.22;5027206;28;20061;-72
2022/11/29 00:53:05;;;;;;;32.72;20.33;;;;;;;2.17;77.42;99296.72;5025889;28;20057;-73
2022/11/29 00:55:32;;;;;;;30.73;21.33;;;;;;;2.11;77.25;99302.09;5026832;28;20302;-73
2022/11/29 00:58:00;;;;;;;33.83;21.02;;;;;;;2.05;77.31;99299.63;5026805;28;20049;-73
2022/11/29 01:00:26;;;;;;;32.65;19.35;;;;;;;2.03;77.22;99309.25;5027021;28;20037;-72
2022/11/29 01:02:53;;;;;;;29.95;20.65;;;;;;;2.00;77.41;99312.78;5027269;28;20049;-72
2022/11/29 01:05:20;;;;;;;34.08;19.95;;;;;;;1.96;77.40;99305.91;5026151;28;20225;-72
2022/11/29 01:07:47;;;;;;;36.50;19.45;;;;;;;1.95;77.51;99304.19;5026844;28;20053;-72
2022/11/29 01:10:13;;;;;;;31.42;19.40;;;;;;;1.93;77.42;99295.50;5026880;28;20049;-73
2022/11/29 01:12:40;;;;;;;36.35;20.55;;;;;;;1.94;77.48;99293.75;5027065;28;20111;-72
2022/11/29 01:15:10;;;;;;;33.03;20.02;;;;;;;1.95;77.56;99298.94;5026739;28;20293;-73
2022/11/29 01:17:39;;;;;;;32.50;18.42;;;;;;;1.94;77.31;99301.59;5025616;28;20037;-73
2022/11/29 01:20:09;;;;;;;30.60;18.90;;;;;;;1.93;77.45;99295.50;5026070;28;20092;-73
2022/11/29 01:22:36;;;;;;;28.60;17.95;;;;;;;1.86;77.41;99292.16;5026650;28;20045;-73
2022/11/29 01:25:03;;;;;;;32.55;19.00;;;;;;;1.91;77.52;99286.84;5026606;28;20049;-73
2022/11/29 01:27:30;;;;;;;28.92;19.02;;;;;;;1.92;77.58;99295.53;5026428;28;20096;-73
2022/11/29 01:29:57;;;;;;;30.13;19.10;;;;;;;1.92;77.33;99293.78;5026570;28;20046;-73
2022/11/29 01:32:25;;;;;;;30.88;19.38;;;;;;;1.39;77.25;99225.19;5026266;28;20046;-73
2022/11/29 01:34:52;;;;;;;30.15;18.27;;;;;;;1.92;77.43;99293.78;5026635;28;20225;-73
2022/11/29 01:37:18;;;;;;;30.42;18.88;;;;;;;1.83;77.17;99273.06;5026442;28;20100;-73
2022/11/29 01:39:45;;;;;;;28.40;18.23;;;;;;;1.91;77.37;99305.13;5026310;28;20099;-73
2022/11/29 01:42:13;;;;;;;31.92;18.15;;;;;;;1.48;77.11;99245.03;5026331;28;20058;-73
2022/11/29 01:45:21;;;;;;;27.95;18.05;;;;;;;1.89;77.48;99304.31;5025443;28;20034;-73
2022/11/29 01:47:52;;;;;;;29.67;18.80;;;;;;;0.52;77.30;99066.88;4985726;28;20090;-73
2022/11/29 01:50:20;;;;;;;29.10;18.25;;;;;;;1.85;77.30;99295.66;5017505;28;20057;-73
2022/11/29 01:52:47;;;;;;;32.72;18.45;;;;;;;1.82;77.54;99297.50;5025733;28;20128;-73
2022/11/29 01:55:14;;;;;;;29.35;18.08;;;;;;;1.79;77.33;99294.94;5026410;28;20049;-72
2022/11/29 01:57:42;;;;;;;32.35;18.30;;;;;;;1.81;77.42;99288.78;5026069;28;20060;-72
2022/11/29 02:00:15;;;;;;;29.58;17.80;;;;;;;1.83;77.19;99304.44;5026045;28;20237;-73
2022/11/29 02:02:44;;;;;;;27.42;17.65;;;;;;;1.80;77.29;99294.91;5026296;28;20251;-73
2022/11/29 02:05:14;;;;;;;26.67;17.52;;;;;;;1.80;77.20;99292.28;5026286;28;20281;-73
2022/11/29 02:07:45;;;;;;;28.27;18.58;;;;;;;1.54;77.30;99250.13;5025554;28;20053;-73
2022/11/29 02:10:14;;;;;;;29.83;19.17;;;;;;;1.75;77.19;99301.13;5025857;28;20061;-73
2022/11/29 02:12:54;;;;;;;28.88;18.08;;;;;;;1.74;77.30;99291.56;5025610;28;20097;-73
2022/11/29 02:15:42;;;;;;;30.15;17.63;;;;;;;1.75;77.27;99295.91;5025782;28;20060;-73
2022/11/29 02:18:13;;;;;;;29.35;17.85;;;;;;;1.73;77.04;99295.06;5025898;28;20034;-72
2022/11/29 02:21:24;;;;;;;29.48;18.60;;;;;;;1.74;77.05;99286.34;5025878;28;20061;-73
2022/11/29 02:24:37;;;;;;;26.05;17.35;;;;;;;1.74;77.12;99286.34;5025606;28;20171;-72
2022/11/29 02:27:18;;;;;;;29.48;16.52;;;;;;;1.73;77.19;99292.44;5025709;28;20347;-73
2022/11/29 02:30:07;;;;;;;29.80;18.48;;;;;;;1.72;76.99;99291.59;5025220;28;20068;-73
2022/11/29 02:33:15;;;;;;;24.13;16.70;;;;;;;1.71;77.00;99289.88;5026018;28;20103;-73
2022/11/29 02:36:10;;;;;;;25.42;16.63;;;;;;;1.72;76.99;99290.72;5024959;28;20088;-73
2022/11/29 02:39:14;;;;;;;27.17;17.80;;;;;;;1.72;76.86;99290.72;5023747;28;20069;-73
2022/11/29 02:41:58;;;;;;;27.83;16.75;;;;;;;1.70;77.01;99298.59;4968821;28;20047;-73
2022/11/29 02:45:03;;;;;;;29.60;18.30;;;;;;;1.69;77.11;99299.50;5020643;28;20238;-73
2022/11/29 02:47:43;;;;;;;26.67;16.60;;;;;;;1.69;77.06;99303.84;4984860;28;20047;-74
2022/11/29 02:50:19;;;;;;;27.13;18.50;;;;;;;1.68;77.20;99302.13;5022606;28;20062;-73
2022/11/29 02:52:56;;;;;;;29.17;16.67;;;;;;;1.68;77.03;99304.75;5025108;28;20074;-73
2022/11/29 02:55:29;;;;;;;25.88;17.38;;;;;;;1.69;77.11;99306.47;5025514;28;20061;-74
2022/11/29 02:58:02;;;;;;;25.27;16.85;;;;;;;1.69;77.07;99301.25;5024421;28;20076;-73
2022/11/29 03:00:29;;;;;;;32.08;19.92;;;;;;;1.67;77.10;99311.72;5024396;28;20306;-73
2022/11/29 03:03:03;;;;;;;26.65;17.30;;;;;;;1.67;77.24;99311.72;5025194;28;20305;-73
2022/11/29 03:05:41;;;;;;;27.25;18.05;;;;;;;1.68;77.11;99315.19;5025438;28;20053;-73
2022/11/29 03:08:18;;;;;;;27.08;17.25;;;;;;;1.65;77.29;99315.25;5024228;28;20061;-73
2022/11/29 03:10:56;;;;;;;26.75;16.67;;;;;;;1.63;77.20;99336.19;5025365;28;20053;-73
2022/11/29 03:13:32;;;;;;;24.40;15.60;;;;;;;1.64;77.27;99313.53;5024276;28;20313;-73
2022/11/29 03:16:05;;;;;;;29.05;18.05;;;;;;;1.65;77.26;99312.66;5025324;28;20054;-73
2022/11/29 03:18:38;;;;;;;26.70;16.58;;;;;;;0.85;76.87;99195.78;5025585;28;20038;-73
2022/11/29 03:21:13;;;;;;;25.15;17.50;;;;;;;1.62;77.24;99310.09;5025209;28;20344;-73
2022/11/29 03:23:45;;;;;;;28.35;16.80;;;;;;;1.61;77.28;99324.03;5025021;28;20044;-73
2022/11/29 03:26:17;;;;;;;28.77;18.05;;;;;;;1.61;77.09;99319.69;5024410;28;20056;-73
2022/11/29 03:28:51;;;;;;;26.73;17.38;;;;;;;1.62;77.18;99321.41;5026396;28;20064;-73
2022/11/29 03:31:23;;;;;;;26.20;17.02;;;;;;;1.65;77.01;99330.94;5028811;28;20306;-73
2022/11/29 03:33:58;;;;;;;28.88;18.35;;;;;;;1.66;77.05;99333.50;5028901;28;20042;-73
2022/11/29 03:36:35;;;;;;;29.30;17.27;;;;;;;1.33;76.82;99284.50;5028877;28;20100;-73
2022/11/29 03:39:07;;;;;;;28.70;17.15;;;;;;;1.63;77.23;99335.31;5028528;28;20290;-73
2022/11/29 03:41:40;;;;;;;28.15;16.33;;;;;;;1.63;77.17;99328.34;5028484;28;20113;-73
2022/11/29 03:44:13;;;;;;;27.63;18.35;;;;;;;1.23;77.08;99276.00;5028194;28;20245;-72
2022/11/29 03:46:47;;;;;;;28.85;18.83;;;;;;;1.64;76.98;99334.44;5027305;28;20125;-73
2022/11/29 03:49:17;;;;;;;;;;;;;;;1.59;77.24;99337.09;5028463;28;20310;-73
2022/11/29 03:51:58;;;;;;;29.35;18.02;;;;;;;1.57;77.18;99337.13;5026860;28;20076;-73
2022/11/29 03:54:35;;;;;;;28.02;17.25;;;;;;;1.05;77.16;99258.06;5027398;28;20302;-73
2022/11/29 03:57:02;;;;;;;31.17;18.40;;;;;;;1.60;77.16;99333.63;5028187;28;20049;-73
2022/11/29 03:59:47;;;;;;;28.88;16.80;;;;;;;1.60;77.10;99341.47;5027642;28;20030;-73
2022/11/29 04:02:34;;;;;;;30.13;17.80;;;;;;;1.59;77.05;99334.50;5028148;28;20053;-73
2022/11/29 04:05:32;;;;;;;27.70;17.85;;;;;;;1.62;77.20;99337.09;5028410;28;20044;-73
2022/11/29 04:08:27;;;;;;;32.47;17.95;;;;;;;1.64;77.06;99340.53;5026807;28;20049;-73
2022/11/29 04:11:36;;;;;;;26.30;17.92;;;;;;;1.65;77.03;99342.25;5027956;28;20096;-73
2022/11/29 04:14:38;;;;;;;31.48;17.75;;;;;;;1.65;77.01;99341.38;5026059;28;20321;-73
2022/11/29 04:17:48;;;;;;;28.42;18.45;;;;;;;1.68;76.86;99342.19;5027656;28;20057;-73
2022/11/29 04:20:53;;;;;;;27.17;17.80;;;;;;;1.71;76.83;99343.88;5027555;28;20058;-72
2022/11/29 04:23:42;;;;;;;32.25;19.05;;;;;;;1.70;76.70;99340.41;5027447;28;20352;-72
2022/11/29 04:26:47;;;;;;;27.08;17.08;;;;;;;1.73;76.56;99340.34;5027966;28;20054;-72
2022/11/29 04:29:24;;;;;;;28.45;17.15;;;;;;;1.71;76.36;99342.13;4994677;28;20066;-73
2022/11/29 04:32:10;;;;;;;26.65;17.00;;;;;;;1.75;76.38;99338.56;5027583;28;20061;-73
2022/11/29 04:35:28;;;;;;;30.02;19.10;;;;;;;1.56;76.29;99311.91;5027562;28;20104;-72
2022/11/29 04:38:24;;;;;;;27.42;17.20;;;;;;;1.78;76.39;99354.19;4986877;28;20319;-72
2022/11/29 04:41:05;;;;;;;26.65;17.42;;;;;;;1.77;76.38;99351.59;4986476;28;20109;-72
2022/11/29 04:44:02;;;;;;;32.33;18.85;;;;;;;1.81;76.24;99361.97;5022257;28;20065;-72
2022/11/29 04:47:04;;;;;;;27.10;18.77;;;;;;;1.65;76.20;99325.72;5023547;28;20116;-72
2022/11/29 04:50:05;;;;;;;30.05;19.40;;;;;;;1.80;76.43;99356.75;5023970;28;20061;-72
2022/11/29 04:53:04;;;;;;;28.42;17.60;;;;;;;1.68;76.35;99346.56;5026686;28;20057;-72
2022/11/29 04:55:42;;;;;;;31.10;18.05;;;;;;;1.77;76.40;99362.06;5025005;28;20071;-72
2022/11/29 04:58:19;;;;;;;28.85;18.70;;;;;;;1.73;76.77;99361.25;5025917;28;20038;-73
2022/11/29 05:00:56;;;;;;;29.27;17.30;;;;;;;1.76;76.88;99362.94;5026990;28;20045;-73
2022/11/29 05:03:35;;;;;;;30.73;19.75;;;;;;;1.77;77.02;99364.66;5025934;28;20038;-73
2022/11/29 05:06:14;;;;;;;30.90;19.92;;;;;;;1.21;76.84;99290.81;5026868;28;20060;-72
2022/11/29 05:08:50;;;;;;;28.75;20.27;;;;;;;1.78;77.12;99380.31;5026756;28;20308;-73
2022/11/29 05:11:26;;;;;;;28.88;18.25;;;;;;;1.77;77.52;99389.03;5026789;28;20054;-72
2022/11/29 05:14:01;;;;;;;31.05;19.20;;;;;;;1.76;77.82;99379.47;5027054;28;20053;-73
2022/11/29 05:16:46;;;;;;;30.13;20.10;;;;;;;1.80;78.09;99380.28;5026453;28;20050;-73
2022/11/29 05:19:35;;;;;;;31.90;20.80;;;;;;;1.80;78.20;99383.75;5026463;28;20206;-72
2022/11/29 05:22:16;;;;;;;32.80;21.55;;;;;;;1.79;78.35;99373.34;5026619;28;20057;-72
2022/11/29 05:24:56;;;;;;;33.97;21.40;;;;;;;1.57;78.44;99352.81;5026393;28;20053;-73
2022/11/29 05:27:33;;;;;;;34.90;20.85;;;;;;;1.80;78.23;99386.38;5026254;28;20064;-73
2022/11/29 05:30:05;;;;;;;34.78;20.85;;;;;;;1.80;78.45;99393.34;5026387;28;20064;-72
2022/11/29 05:32:38;;;;;;;33.55;21.92;;;;;;;1.79;78.75;99396.84;5026213;28;20073;-72
2022/11/29 05:35:42;;;;;;;31.70;22.00;;;;;;;1.81;78.90;99401.16;5026317;28;20041;-72
2022/11/29 05:38:32;;;;;;;35.50;24.42;;;;;;;1.78;79.02;99402.97;5026356;28;20120;-73
2022/11/29 05:41:13;;;;;;;36.38;21.80;;;;;;;1.57;79.20;99373.69;5018077;28;20123;-73
2022/11/29 05:43:48;;;;;;;34.13;22.75;;;;;;;1.77;78.90;99399.50;5025977;28;20061;-73
2022/11/29 05:46:21;;;;;;;37.35;21.27;;;;;;;1.76;79.51;99409.97;5026480;28;20131;-73
2022/11/29 05:48:57;;;;;;;38.50;22.92;;;;;;;1.77;79.50;99403.84;5025870;28;20042;-72
2022/11/29 05:51:36;;;;;;;35.45;22.48;;;;;;;1.79;79.36;99402.06;5024130;28;20074;-73
2022/11/29 05:54:17;;;;;;;34.97;22.05;;;;;;;1.78;79.54;99400.34;5025050;28;20068;-72
2022/11/29 05:56:53;;;;;;;38.35;22.55;;;;;;;1.75;79.69;99398.66;5026100;28;20050;-72
2022/11/29 05:59:24;;;;;;;33.88;22.10;;;;;;;1.75;79.42;99409.13;5025698;28;20046;-73
2022/11/29 06:02:01;;;;;;;36.80;22.55;;;;;;;1.76;79.59;99402.13;5026180;28;20052;-72
2022/11/29 06:04:39;;;;;;;37.33;21.90;;;;;;;1.76;79.77;99415.19;5024964;28;20045;-72
2022/11/29 06:07:14;;;;;;;36.22;23.10;;;;;;;1.74;80.15;99406.53;5025743;28;20249;-72
2022/11/29 06:09:48;;;;;;;35.80;21.75;;;;;;;1.74;80.05;99417.84;5025305;28;20054;-72
2022/11/29 06:12:20;;;;;;;34.45;21.60;;;;;;;1.73;80.24;99421.34;5026185;28;20099;-73
2022/11/29 06:15:11;;;;;;;34.80;23.05;;;;;;;1.72;80.46;99413.53;5025850;28;20054;-72
2022/11/29 06:17:51;;;;;;;33.42;22.60;;;;;;;1.73;80.12;99410.88;5024690;28;20309;-73
2022/11/29 06:20:33;;;;;;;36.13;21.63;;;;;;;1.74;80.77;99422.19;5026094;28;20092;-72
2022/11/29 06:23:35;;;;;;;36.17;22.27;;;;;;;1.77;80.74;99419.53;5024704;28;20084;-72
2022/11/29 06:26:23;;;;;;;40.90;21.52;;;;;;;1.04;80.89;99306.78;5013083;28;20128;-73
2022/11/29 06:29:01;;;;;;;41.70;23.02;;;;;;;1.51;81.01;99386.00;5025917;28;20038;-72
2022/11/29 06:31:32;;;;;;;35.53;22.75;;;;;;;1.72;80.55;99437.91;5025621;28;20069;-72
2022/11/29 06:34:06;;;;;;;33.05;21.27;;;;;;;1.50;81.06;99400.81;5025422;28;20294;-72
2022/11/29 06:36:39;;;;;;;36.70;22.00;;;;;;;1.69;80.96;99435.34;5025981;28;20290;-73
2022/11/29 06:39:09;;;;;;;33.22;21.42;;;;;;;1.72;81.04;99455.34;5024797;28;20448;-72
2022/11/29 06:41:37;;;;;;;36.33;22.52;;;;;;;1.73;80.90;99439.63;5026112;28;20235;-72
2022/11/29 06:44:05;;;;;;;34.47;22.20;;;;;;;1.76;80.79;99450.03;5026028;28;20141;-71
2022/11/29 06:46:44;;;;;;;34.78;22.88;;;;;;;1.77;80.94;99443.06;5025041;28;20038;-72
2022/11/29 06:49:16;;;;;;;33.45;20.55;;;;;;;1.78;80.96;99443.03;5025209;28;20045;-72
2022/11/29 06:51:51;;;;;;;35.38;22.30;;;;;;;1.80;80.69;99443.84;5025333;28;20057;-72
2022/11/29 06:54:35;;;;;;;34.75;23.88;;;;;;;1.83;81.02;99442.94;5025233;28;20064;-72
2022/11/29 06:57:12;;;;;;;34.85;22.60;;;;;;;1.86;80.54;99445.50;5025394;28;20092;-72
2022/11/29 06:59:51;;;;;;;37.20;21.83;;;;;;;1.84;81.01;99453.38;5025170;28;20058;-72
2022/11/29 07:02:28;;;;;;;35.90;22.55;;;;;;;1.84;81.26;99447.28;5025791;28;20041;-72
2022/11/29 07:05:09;;;;;;;32.97;20.90;;;;;;;1.85;81.27;99467.28;5029163;28;20053;-72
2022/11/29 07:07:37;;;;;;;32.92;20.83;;;;;;;1.85;80.78;99449.84;5029346;28;20038;-72
2022/11/29 07:10:06;;;;;;;36.78;22.80;;;;;;;1.67;81.25;99428.44;5028726;28;20049;-71
2022/11/29 07:12:36;;;;;;;34.63;22.27;;;;;;;1.87;81.16;99452.44;5028952;28;20290;-71
2022/11/29 07:15:03;;;;;;;31.92;21.55;;;;;;;1.90;80.78;99458.47;5029094;28;20042;-72
2022/11/29 07:17:38;;;;;;;31.33;19.75;;;;;;;1.91;80.96;99467.19;5028881;28;20294;-71
2022/11/29 07:20:13;;;;;;;34.90;21.63;;;;;;;1.89;81.00;99461.13;5028457;28;20314;-72
2022/11/29 07:22:54;;;;;;;33.97;21.83;;;;;;;1.73;80.94;99418.72;5027794;28;20049;-72
2022/11/29 07:25:35;;;;;;;35.38;23.42;;;;;;;1.93;80.90;99456.69;5028835;28;20046;-72
2022/11/29 07:28:16;;;;;;;33.13;21.50;;;;;;;1.93;80.92;99448.84;5027938;28;20038;-72
2022/11/29 07:30:52;;;;;;;38.90;23.35;;;;;;;1.76;80.72;99433.50;5028473;28;20049;-72
2022/11/29 07:33:26;;;;;;;30.80;19.73;;;;;;;2.03;80.50;99466.09;5027847;28;20038;-72
2022/11/29 07:36:01;;;;;;;32.42;20.33;;;;;;;1.48;80.19;99391.28;5027381;28;20049;-72
2022/11/29 07:38:44;;;;;;;31.52;20.60;;;;;;;2.02;80.63;99474.81;5028719;28;20092;-71
2022/11/29 07:41:20;;;;;;;34.25;21.42;;;;;;;1.99;80.43;99470.50;5028376;28;20045;-71
2022/11/29 07:43:54;;;;;;;34.60;21.92;;;;;;;2.00;80.23;99477.47;5027416;28;20072;-72
2022/11/29 07:46:21;;;;;;;37.63;21.25;;;;;;;2.04;80.20;99471.28;5028325;28;20053;-72
2022/11/29 07:48:48;;;;;;;31.08;22.40;;;;;;;1.83;80.16;99448.16;5028307;28;20092;-72
2022/11/29 07:51:15;;;;;;;30.75;20.38;;;;;;;2.05;80.17;99480.84;5027956;28;20061;-72
2022/11/29 07:53:43;;;;;;;30.77;19.58;;;;;;;1.81;80.09;99434.25;5028446;28;20057;-72
2022/11/29 07:56:11;;;;;;;34.78;22.27;;;;;;;2.06;80.19;99476.50;5028293;28;20054;-72
2022/11/29 07:58:38;;;;;;;34.15;21.00;;;;;;;2.08;80.08;99479.94;5028068;28;20038;-72
2022/11/29 08:01:06;;;;;;;28.65;19.55;;;;;;;2.10;79.79;99488.63;5028127;28;20225;-72
2022/11/29 08:03:34;;;;;;;33.13;19.98;;;;;;;2.11;79.65;99488.59;5027762;28;20050;-72
2022/11/29 08:06:01;;;;;;;31.40;21.20;;;;;;;1.92;79.70;99452.38;5026830;28;20038;-72
2022/11/29 08:08:27;;;;;;;32.97;19.77;;;;;;;2.11;79.81;99490.34;5028018;28;20049;-72
2022/11/29 08:10:54;;;;;;;32.42;20.45;;;;;;;2.12;79.81;99486.84;5026933;28;20053;-72
2022/11/29 08:13:21;;;;;;;34.70;22.98;;;;;;;2.12;79.58;99500.75;5027995;28;20046;-72
2022/11/29 08:15:49;;;;;;;33.28;19.60;;;;;;;2.11;79.67;99514.72;5026667;28;20352;-72
2022/11/29 08:18:17;;;;;;;33.85;21.17;;;;;;;1.99;79.44;99465.28;5027667;28;20061;-72
2022/11/29 08:20:45;;;;;;;30.08;19.92;;;;;;;2.16;79.35;99491.13;5026552;28;20175;-72
2022/11/29 08:23:13;;;;;;;35.05;21.70;;;;;;;2.17;79.49;99495.44;5026519;28;20045;-72
2022/11/29 08:25:40;;;;;;;29.63;19.65;;;;;;;2.17;79.59;99492.84;5027369;28;20376;-72
2022/11/29 08:28:07;;;;;;;29.80;21.08;;;;;;;2.20;79.25;99492.78;5027558;28;20050;-72
2022/11/29 08:30:34;;;;;;;33.58;21.63;;;;;;;2.22;79.27;99497.09;5026767;28;20049;-72
2022/11/29 08:33:00;;;;;;;30.05;20.13;;;;;;;2.23;79.32;99504.03;5027701;28;20111;-72
2022/11/29 08:35:29;;;;;;;31.38;20.45;;;;;;;2.22;79.08;99512.78;5027226;28;20096;-72
2022/11/29 08:37:56;;;;;;;31.40;22.10;;;;;;;1.85;79.19;99455.09;5027057;28;20049;-72
2022/11/29 08:40:23;;;;;;;33.30;22.08;;;;;;;2.24;79.05;99512.75;5027164;28;20054;-72
2022/11/29 08:42:50;;;;;;;29.45;20.35;;;;;;;2.27;79.24;99510.06;5026639;28;20046;-72
2022/11/29 08:45:17;;;;;;;31.30;21.60;;;;;;;2.26;78.85;99515.34;5027212;28;20289;-71
2022/11/29 08:47:43;;;;;;;29.42;20.48;;;;;;;2.20;79.02;99506.72;5027413;28;20058;-72
2022/11/29 08:50:13;;;;;;;29.15;19.65;;;;;;;2.22;78.81;99507.53;5026709;28;20043;-72
2022/11/29 08:55:31;;;;;;;30.00;20.15;;;;;;;2.21;78.80;99526.75;5027035;28;20054;-72
2022/11/29 08:58:01;;;;;;;32.22;20.73;;;;;;;2.20;78.90;99518.94;5025929;28;20037;-72
2022/11/29 09:00:28;;;;;;;31.05;20.85;;;;;;;2.00;78.72;99506.22;5025819;28;20041;-72
2022/11/29 09:03:58;;;;;;;30.67;20.00;;;;;;;2.20;78.75;99532.88;5025656;28;20092;-72
2022/11/29 09:05:42;;;;;;;29.40;20.50;;;;;;;2.23;78.71;99524.97;5026447;28;20054;-73
2022/11/29 09:08:10;;;;;;;27.15;19.10;;;;;;;2.07;78.61;99480.84;5026832;28;20297;-72
2022/11/29 09:10:38;;;;;;;31.88;19.67;;;;;;;2.26;78.59;99534.50;5026597;28;20050;-72
2022/11/29 09:13:05;;;;;;;28.42;19.00;;;;;;;2.30;78.32;99543.16;5026549;28;20050;-72
2022/11/29 09:15:31;;;;;;;28.92;19.60;;;;;;;2.06;78.25;99506.09;5026773;28;20050;-72
2022/11/29 09:17:58;;;;;;;29.27;19.55;;;;;;;2.28;78.23;99535.34;5026291;28;20202;-72
2022/11/29 09:20:25;;;;;;;26.52;18.55;;;;;;;2.28;78.40;99534.47;5026657;28;20306;-72
2022/11/29 09:22:52;;;;;;;27.02;19.20;;;;;;;2.30;78.28;99537.91;5025291;28;20385;-72
2022/11/29 09:25:20;;;;;;;32.10;18.77;;;;;;;1.97;78.05;99463.59;5026301;28;20096;-72
2022/11/29 09:27:46;;;;;;;26.08;17.67;;;;;;;2.28;78.22;99530.09;5025070;28;20046;-72
2022/11/29 09:30:14;;;;;;;28.02;18.90;;;;;;;2.23;78.19;99531.94;5026556;28;20175;-72
2022/11/29 09:32:40;;;;;;;27.73;18.08;;;;;;;2.23;78.16;99524.97;5025494;28;20045;-72
2022/11/29 09:35:08;;;;;;;26.83;17.90;;;;;;;2.23;78.28;99531.94;5026628;28;20053;-72
2022/11/29 09:37:35;;;;;;;26.58;18.02;;;;;;;2.26;78.24;99528.41;5025146;28;20178;-72
2022/11/29 09:40:03;;;;;;;24.95;17.88;;;;;;;2.30;78.03;99532.69;5026374;28;20104;-73
2022/11/29 09:42:46;;;;;;;26.40;18.92;;;;;;;2.30;77.97;99522.22;5026037;28;20041;-72
2022/11/29 09:45:18;;;;;;;25.90;17.63;;;;;;;2.33;77.85;99525.66;5025986;28;20054;-72
2022/11/29 09:48:23;;;;;;;25.05;18.50;;;;;;;2.37;77.61;99522.09;5025998;28;20100;-71
2022/11/29 09:50:53;;;;;;;28.00;19.02;;;;;;;2.36;77.64;99522.97;5026428;28;20038;-72
2022/11/29 09:53:31;;;;;;;24.77;16.92;;;;;;;2.41;77.58;99522.88;5026140;28;20332;-72
2022/11/29 09:56:17;;;;;;;26.00;18.15;;;;;;;2.42;77.42;99516.75;5026052;28;20068;-72
2022/11/29 09:58:48;;;;;;;26.52;19.00;;;;;;;1.89;77.00;99450.66;5025904;28;20054;-72
2022/11/29 10:01:20;;;;;;;26.45;17.10;;;;;;;2.37;77.13;99519.47;5025259;28;20042;-72
2022/11/29 10:03:51;;;;;;;28.02;18.30;;;;;;;2.44;77.27;99518.47;5024805;28;20045;-72
2022/11/29 10:06:23;;;;;;;26.13;18.05;;;;;;;2.48;76.96;99521.88;5024892;28;20209;-72
2022/11/29 10:08:54;;;;;;;28.33;20.42;;;;;;;2.51;76.88;99525.28;5026032;28;20108;-72
2022/11/29 10:11:27;;;;;;;27.20;19.85;;;;;;;2.58;76.83;99514.69;5025874;28;20209;-72
2022/11/29 10:13:59;;;;;;;28.25;20.73;;;;;;;2.54;76.63;99504.31;5025608;28;20064;-72
2022/11/29 10:16:39;;;;;;;26.70;17.55;;;;;;;2.66;76.48;99504.94;5026231;28;20056;-72
2022/11/29 10:19:15;;;;;;;23.73;17.38;;;;;;;2.73;76.37;99514.38;5025441;28;20053;-72
2022/11/29 10:21:45;;;;;;;27.50;18.52;;;;;;;2.80;76.23;99497.66;5024413;28;20297;-72
2022/11/29 10:24:17;;;;;;;27.80;18.23;;;;;;;2.85;76.09;99511.50;5025704;28;20302;-72
2022/11/29 10:26:44;;;;;;;25.73;18.23;;;;;;;2.88;75.88;99504.44;5025287;28;20112;-72
2022/11/29 10:29:16;;;;;;;26.88;18.27;;;;;;;2.90;75.59;99504.41;5025492;28;20038;-71
2022/11/29 10:31:48;;;;;;;25.52;16.95;;;;;;;2.86;75.53;99511.47;5025669;28;20112;-72
2022/11/29 10:34:17;;;;;;;26.33;17.38;;;;;;;2.88;75.78;99504.44;5025834;28;20092;-72
2022/11/29 10:36:46;;;;;;;27.27;20.13;;;;;;;2.89;75.61;99494.84;5025262;28;20064;-72
2022/11/29 10:39:17;;;;;;;31.88;18.70;;;;;;;2.33;75.65;99417.56;5029296;28;20048;-72
2022/11/29 10:41:44;;;;;;;24.95;17.30;;;;;;;2.88;75.15;99512.31;5029499;28;20282;-72
2022/11/29 10:44:15;;;;;;;28.02;20.10;;;;;;;-0.61;75.00;98922.19;5029646;28;20052;-71
2022/11/29 10:46:42;;;;;;;24.88;17.75;;;;;;;2.84;75.50;99512.41;5029547;28;20045;-71
2022/11/29 10:49:13;;;;;;;22.33;16.92;;;;;;;2.74;75.34;99485.56;5029120;28;20050;-72
2022/11/29 10:51:40;;;;;;;23.48;18.25;;;;;;;2.83;75.38;99503.69;5029220;28;20088;-72
2022/11/29 10:54:19;;;;;;;27.08;18.90;;;;;;;2.83;75.43;99514.16;5029290;28;20064;-72
2022/11/29 10:56:46;;;;;;;27.20;18.67;;;;;;;2.86;75.63;99506.25;5028231;28;20065;-72
2022/11/29 10:59:22;;;;;;;24.00;18.95;;;;;;;2.30;75.06;99391.47;5028101;28;20052;-72
2022/11/29 11:01:49;;;;;;;25.23;17.65;;;;;;;2.88;75.27;99493.97;5028860;28;20042;-72
2022/11/29 11:04:24;;;;;;;26.00;19.30;;;;;;;2.73;74.87;99482.97;5028612;28;20145;-72
2022/11/29 11:06:55;;;;;;;30.50;17.83;;;;;;;2.85;74.67;99501.91;5028259;28;20297;-72
2022/11/29 11:09:28;;;;;;;25.27;17.40;;;;;;;2.84;74.70;99499.31;5028071;28;20052;-72
2022/11/29 11:11:57;;;;;;;23.02;16.65;;;;;;;2.83;74.80;99493.22;5028412;28;20038;-72
2022/11/29 11:14:28;;;;;;;23.10;16.00;;;;;;;2.82;74.93;99501.97;5028714;28;20053;-71
2022/11/29 11:16:55;;;;;;;21.65;16.95;;;;;;;2.82;74.54;99504.59;5028651;28;20052;-72
2022/11/29 11:19:28;;;;;;;28.77;19.30;;;;;;;2.83;74.42;99495.84;5028623;28;20241;-71
2022/11/29 11:21:55;;;;;;;23.50;15.45;;;;;;;2.83;74.67;99498.47;5028278;28;20045;-71
2022/11/29 11:24:25;;;;;;;28.00;17.98;;;;;;;2.84;74.73;99494.94;5028503;28;20060;-72
2022/11/29 11:26:52;;;;;;;23.92;15.60;;;;;;;2.86;74.49;99495.78;5027783;28;20084;-72
2022/11/29 11:29:20;;;;;;;23.63;17.35;;;;;;;2.86;74.49;99500.16;5027961;28;20046;-72
2022/11/29 11:31:54;;;;;;;22.00;17.25;;;;;;;2.38;74.60;99428.78;5028345;28;20176;-71
2022/11/29 11:34:28;;;;;;;24.83;17.73;;;;;;;2.92;74.50;99504.38;5027660;28;20345;-72
2022/11/29 11:37:17;;;;;;;25.90;18.13;;;;;;;2.93;74.43;99499.13;5028250;28;20320;-72
2022/11/29 11:39:45;;;;;;;22.35;17.33;;;;;;;2.76;74.77;99460.22;5028095;28;20237;-71
2022/11/29 11:44:59;;;;;;;25.42;17.90;;;;;;;2.46;74.45;99419.88;5028266;28;20060;-72
2022/11/29 11:47:30;;;;;;;26.05;18.48;;;;;;;3.10;74.64;99493.50;5027286;28;20045;-72
2022/11/29 11:50:07;;;;;;;24.50;17.25;;;;;;;3.14;74.18;99500.41;5026993;28;20034;-72
2022/11/29 11:52:40;;;;;;;24.50;16.17;;;;;;;2.55;74.06;99417.06;5027824;28;20064;-72
2022/11/29 11:55:27;;;;;;;23.73;17.08;;;;;;;3.16;73.74;99504.69;5026898;28;20317;-72
2022/11/29 11:58:07;;;;;;;25.33;16.60;;;;;;;3.14;73.69;99496.03;5027541;28;20208;-72
2022/11/29 12:00:46;;;;;;;26.95;18.20;;;;;;;3.19;73.75;99498.53;5027956;28;20057;-72
2022/11/29 12:03:29;;;;;;;21.45;15.30;;;;;;;3.20;73.58;99495.88;5027564;28;20109;-72
2022/11/29 12:06:03;;;;;;;24.50;17.58;;;;;;;3.20;73.60;99497.63;5027997;28;20290;-72